createdAt,value
2022-11-17T00:04:29.846Z,3.39
2022-11-17T00:09:32.470Z,2.92
2022-11-17T00:14:37.481Z,3.82
2022-11-17T00:19:45.356Z,6.72
2022-11-17T00:24:48.882Z,6.09
2022-11-17T00:30:26.996Z,4.44
2022-11-17T00:35:29.531Z,5.00
2022-11-17T00:40:32.083Z,6.91
2022-11-17T00:45:34.689Z,5.27
2022-11-17T00:50:37.292Z,3.94
2022-11-17T00:55:42.555Z,3.26
2022-11-17T01:00:45.133Z,5.27
2022-11-17T01:05:47.719Z,6.86
2022-11-17T01:10:50.353Z,4.92
2022-11-17T01:15:52.986Z,3.70
2022-11-17T01:20:55.543Z,4.16
2022-11-17T01:26:02.413Z,6.78
2022-11-17T01:31:08.637Z,5.55
2022-11-17T01:36:30.277Z,4.03
2022-11-17T01:41:32.845Z,4.77
2022-11-17T01:46:38.332Z,6.23
2022-11-17T01:51:50.713Z,4.53
2022-11-17T01:56:58.328Z,3.38
2022-11-17T02:02:01.215Z,3.13
2022-11-17T02:07:09.698Z,5.69
2022-11-17T02:12:14.155Z,6.59
2022-11-17T02:17:18.010Z,4.78
2022-11-17T02:23:30.626Z,3.64
2022-11-17T02:28:47.592Z,3.92
2022-11-17T02:33:50.434Z,6.52
2022-11-17T02:39:00.908Z,5.89
2022-11-17T02:44:12.836Z,4.06
2022-11-17T02:49:18.301Z,3.79
2022-11-17T02:54:23.185Z,6.28
2022-11-17T02:59:31.191Z,6.21
2022-11-17T03:04:46.871Z,4.26
2022-11-17T03:10:03.781Z,3.19
2022-11-17T03:15:06.328Z,2.73
2022-11-17T03:20:17.348Z,5.02
2022-11-17T03:25:23.513Z,6.11
2022-11-17T03:30:30.863Z,4.27
2022-11-17T03:35:43.936Z,3.72
2022-11-17T03:40:52.877Z,6.23
2022-11-17T03:45:58.892Z,6.00
2022-11-17T03:51:09.215Z,4.13
2022-11-17T03:56:16.682Z,3.66
2022-11-17T04:01:21.207Z,5.85
2022-11-17T04:06:23.906Z,5.13
2022-11-17T04:11:29.403Z,3.61
2022-11-17T04:16:31.973Z,4.52
2022-11-17T04:21:34.731Z,5.99
2022-11-17T04:26:40.230Z,4.39
2022-11-17T04:31:42.792Z,3.30
2022-11-17T04:36:45.548Z,3.06
2022-11-17T04:41:52.074Z,5.44
2022-11-17T04:46:55.786Z,5.01
2022-11-17T04:52:01.156Z,3.32
2022-11-17T04:57:03.778Z,2.75
2022-11-17T05:02:06.620Z,5.10
2022-11-17T05:07:09.456Z,5.13
2022-11-17T05:12:15.052Z,3.47
2022-11-17T05:17:17.666Z,3.55
2022-11-17T05:22:25.915Z,5.72
2022-11-17T05:27:28.639Z,4.46
2022-11-17T05:32:31.436Z,3.15
2022-11-17T05:37:33.976Z,4.35
2022-11-17T05:42:36.595Z,4.91
2022-11-17T05:47:39.534Z,3.38
2022-11-17T05:52:42.073Z,3.04
2022-11-17T05:57:45.088Z,5.24
2022-11-17T06:02:52.864Z,4.54
2022-11-17T06:07:57.876Z,3.17
2022-11-17T06:13:00.524Z,3.72
2022-11-17T06:18:08.007Z,5.42
2022-11-17T06:23:12.056Z,3.78
2022-11-17T06:28:19.411Z,2.83
2022-11-17T06:33:22.162Z,4.64
2022-11-17T06:38:24.762Z,3.99
2022-11-17T06:43:27.327Z,2.78
2022-11-17T06:48:30.270Z,2.11
2022-11-17T06:53:34.296Z,3.30
2022-11-17T06:58:39.565Z,5.48
2022-11-17T07:03:43.283Z,4.09
2022-11-17T07:08:46.203Z,2.92
2022-11-17T07:13:48.771Z,3.12
2022-11-17T07:18:53.001Z,5.73
2022-11-17T07:23:55.628Z,5.39
2022-11-17T07:28:58.332Z,3.77
2022-11-17T07:34:00.846Z,2.93
2022-11-17T07:39:05.336Z,3.75
2022-11-17T07:44:07.910Z,4.52
2022-11-17T07:49:10.675Z,3.26
2022-11-17T07:54:13.218Z,3.57
2022-11-17T07:59:21.038Z,5.44
2022-11-17T08:04:24.021Z,4.00
2022-11-17T08:09:26.544Z,3.09
2022-11-17T08:14:29.746Z,4.81
2022-11-17T08:19:32.509Z,4.76
2022-11-17T08:24:35.221Z,3.57
2022-11-17T08:29:38.158Z,3.07
2022-11-17T08:34:41.127Z,3.71
2022-11-17T08:39:43.684Z,6.18
2022-11-17T08:44:46.530Z,5.14
2022-11-17T08:49:49.131Z,4.13
2022-11-17T08:54:52.436Z,3.53
2022-11-17T08:59:55.097Z,4.29
2022-11-17T09:04:57.619Z,6.18
2022-11-17T09:10:01.115Z,4.86
2022-11-17T09:15:05.617Z,4.07
2022-11-17T09:20:08.991Z,3.58
2022-11-17T09:25:13.672Z,3.58
2022-11-17T09:30:21.780Z,5.85
2022-11-17T09:35:24.403Z,5.36
2022-11-17T09:40:34.648Z,4.51
2022-11-17T09:45:40.297Z,4.03
2022-11-17T09:50:45.157Z,3.71
2022-11-17T09:55:54.263Z,3.50
2022-11-17T10:00:57.664Z,3.38
2022-11-17T10:06:05.867Z,5.54
2022-11-17T10:11:32.925Z,7.41
2022-11-17T10:16:40.794Z,5.91
2022-11-17T10:21:44.480Z,4.96
2022-11-17T10:26:49.317Z,4.47
2022-11-17T10:31:52.070Z,4.19
2022-11-17T10:36:54.775Z,3.98
2022-11-17T10:41:57.453Z,3.90
2022-11-17T10:47:04.146Z,3.84
2022-11-17T10:52:08.758Z,3.80
2022-11-17T10:57:28.894Z,3.65
2022-11-17T11:02:35.613Z,3.57
2022-11-17T11:07:39.324Z,3.58
2022-11-17T11:12:45.587Z,3.63
2022-11-17T11:18:13.945Z,3.63
2022-11-17T11:23:20.542Z,3.56
2022-11-17T11:28:27.467Z,3.46
2022-11-17T11:33:30.984Z,3.50
2022-11-17T11:38:37.418Z,3.59
2022-11-17T11:43:43.227Z,3.55
2022-11-17T11:48:48.121Z,3.47
2022-11-17T11:54:01.029Z,3.44
2022-11-17T11:59:03.600Z,3.43
2022-11-17T12:04:19.917Z,3.41
2022-11-17T12:09:26.299Z,3.37
2022-11-17T12:15:03.665Z,3.24
2022-11-17T12:20:29.124Z,3.11
2022-11-17T12:25:36.037Z,3.16
2022-11-17T12:30:43.512Z,3.20
2022-11-17T12:35:47.242Z,3.22
2022-11-17T12:40:51.464Z,3.20
2022-11-17T12:46:03.986Z,3.20
2022-11-17T12:51:11.583Z,3.18
2022-11-17T12:56:20.045Z,3.06
2022-11-17T13:01:27.614Z,2.92
2022-11-17T13:06:37.500Z,2.79
2022-11-17T13:11:40.145Z,2.60
2022-11-17T13:16:46.835Z,2.42
2022-11-17T13:21:49.417Z,2.25
2022-11-17T13:26:59.422Z,2.16
2022-11-17T13:32:11.158Z,2.02
2022-11-17T13:37:19.218Z,1.90
2022-11-17T13:42:25.192Z,1.83
2022-11-17T13:47:47.633Z,1.76
2022-11-17T13:53:10.424Z,1.64
2022-11-17T13:58:23.332Z,1.48
2022-11-17T14:03:33.205Z,1.34
2022-11-17T14:08:37.654Z,1.61
2022-11-17T14:13:41.278Z,4.91
2022-11-17T14:18:55.840Z,6.17
2022-11-17T14:24:04.540Z,4.06
2022-11-17T14:29:13.555Z,2.88
2022-11-17T14:34:16.782Z,2.12
2022-11-17T14:39:20.007Z,1.51
2022-11-17T14:44:23.233Z,1.00
2022-11-17T14:49:25.789Z,0.55
2022-11-17T14:54:28.971Z,1.30
2022-11-17T14:59:31.555Z,4.39
2022-11-17T15:05:07.245Z,4.63
2022-11-17T15:10:10.289Z,2.59
2022-11-17T15:15:12.957Z,1.53
2022-11-17T15:20:15.675Z,0.82
2022-11-17T15:25:18.297Z,0.27
2022-11-17T15:30:20.960Z,1.05
2022-11-17T15:35:24.440Z,4.08
2022-11-17T15:40:26.999Z,4.21
2022-11-17T15:45:29.699Z,2.10
2022-11-17T15:50:32.209Z,0.85
2022-11-17T15:55:35.271Z,1.44
2022-11-17T16:07:18.342Z,2.96
2022-11-17T16:12:20.923Z,1.20
2022-11-17T16:17:23.539Z,1.53
2022-11-17T16:22:27.011Z,4.28
2022-11-17T16:27:29.579Z,3.53
2022-11-17T16:32:32.189Z,1.46
2022-11-17T16:37:34.722Z,0.35
2022-11-17T16:42:37.269Z,0.96
2022-11-17T16:47:39.769Z,3.85
2022-11-17T16:52:43.265Z,4.22
2022-11-17T16:57:45.848Z,2.02
2022-11-17T17:02:50.019Z,0.75
2022-11-17T17:07:52.684Z,2.14
2022-11-17T17:12:55.264Z,4.37
2022-11-17T17:17:57.829Z,3.15
2022-11-17T17:23:03.201Z,1.17
2022-11-17T17:28:05.990Z,2.79
2022-11-17T17:33:08.517Z,4.32
2022-11-17T17:38:11.081Z,2.35
2022-11-17T17:43:13.667Z,0.63
2022-11-17T17:48:16.232Z,2.07
2022-11-17T17:53:18.781Z,4.20
2022-11-17T17:58:21.331Z,2.99
2022-11-17T18:03:24.026Z,0.96
2022-11-17T18:08:26.796Z,2.33
2022-11-17T18:13:33.154Z,4.18
2022-11-17T18:18:36.618Z,2.62
2022-11-17T18:23:41.966Z,0.63
2022-11-17T18:28:51.666Z,1.17
2022-11-17T18:33:58.164Z,3.74
2022-11-17T18:39:00.745Z,3.95
2022-11-17T18:44:03.510Z,1.69
2022-11-17T18:49:06.052Z,0.36
2022-11-17T18:54:12.047Z,2.32
2022-11-17T18:59:15.308Z,3.99
2022-11-17T19:04:18.240Z,2.00
2022-11-17T19:09:20.920Z,0.25
2022-11-17T19:14:23.437Z,1.19
2022-11-17T19:19:26.465Z,3.69
2022-11-17T19:24:29.019Z,3.33
2022-11-17T19:29:31.715Z,1.01
2022-11-17T19:34:34.343Z,0.81
2022-11-17T19:39:36.991Z,3.80
2022-11-17T19:44:39.536Z,3.48
2022-11-17T19:49:43.154Z,1.04
2022-11-17T19:54:45.674Z,-0.08
2022-11-17T19:59:48.239Z,2.51
2022-11-17T20:04:50.751Z,4.76
2022-11-17T20:09:53.330Z,2.87
2022-11-17T20:14:55.871Z,0.79
2022-11-17T20:19:58.431Z,2.32
2022-11-17T20:25:03.650Z,4.17
2022-11-17T20:30:10.949Z,2.72
2022-11-17T20:35:17.447Z,0.90
2022-11-17T20:40:19.991Z,2.39
2022-11-17T20:45:23.093Z,4.32
2022-11-17T20:50:25.955Z,2.72
2022-11-17T20:55:28.740Z,0.82
2022-11-17T21:00:31.281Z,2.01
2022-11-17T21:05:33.943Z,4.26
2022-11-17T21:10:36.983Z,3.24
2022-11-17T21:15:39.704Z,1.50
2022-11-17T21:20:44.489Z,3.46
2022-11-17T21:25:49.249Z,2.92
2022-11-17T21:30:51.892Z,0.83
2022-11-17T21:36:00.382Z,2.18
2022-11-17T21:41:06.045Z,3.74
2022-11-17T21:46:12.479Z,1.65
2022-11-17T21:51:14.879Z,0.87
2022-11-17T21:56:17.568Z,3.33
2022-11-17T22:01:20.163Z,3.72
2022-11-17T22:06:24.360Z,1.59
2022-11-17T22:11:32.319Z,0.29
2022-11-17T22:16:37.044Z,1.57
2022-11-17T22:21:40.491Z,3.66
2022-11-17T22:26:46.557Z,2.54
2022-11-17T22:31:50.515Z,0.67
2022-11-17T22:36:53.115Z,0.02
2022-11-17T22:41:55.674Z,2.85
2022-11-17T22:46:58.172Z,4.04
2022-11-17T22:52:03.634Z,1.77
2022-11-17T22:57:06.193Z,0.29
2022-11-17T23:02:08.787Z,-0.56
2022-11-17T23:07:11.479Z,0.42
2022-11-17T23:12:14.466Z,4.03
2022-11-17T23:17:19.525Z,3.43
2022-11-17T23:22:25.313Z,1.43
2022-11-17T23:27:27.859Z,0.21
2022-11-17T23:32:30.455Z,-0.43
2022-11-17T23:37:33.004Z,1.90
2022-11-17T23:42:41.629Z,3.91
2022-11-17T23:47:45.615Z,2.16
2022-11-17T23:52:48.170Z,0.57
2022-11-17T23:57:50.690Z,-0.26
